KRTN/RTN METAR and TAF weather

Enter ICAO airport designator
Station Type Date Time Source
KRTN METAR 2019/02/22 21:53 UTC NOAA

KRTN 222153Z AUTO 19027G35KT 10SM FEW050 BKN070 BKN085 08/M03 A2967 RMK AO2 PK WND 19041/2141 SLP022 T00781028


Station Type Date Time Source
KRTN Decoded METAR 2019/02/22 21:53 UTC NOAA

Raton, Raton Municipal \ Crews Field Airport, NM, United States (KRTN) 36-44-31N 104-39-28W 1939M
Feb 22, 2019 - 04:53 PM EST / 2019.02.22 2153 UTC
Wind: from the S (190 degrees) at 31 MPH (27 KT) gusting to 40 MPH (35 KT):0
Visibility: 10 mile(s):0
Sky conditions: mostly cloudy
Temperature: 46.0 F (7.8 C)
Dew Point: 27.0 F (-2.8 C)
Relative Humidity: 47%
Pressure (altimeter): 29.67 in. Hg (1004 hPa)
ob: KRTN 222153Z AUTO 19027G35KT 10SM FEW050 BKN070 BKN085 08/M03 A2967 RMK AO2 PK WND 19041/2141 SLP022 T00781028
cycle: 22

Station Type Date Time Source
KRTN TAF UTC NOAA

Error!


Example: see airport list